• Join FlightAware (Why Join?)
  • Login
  • US Flag 
05:46PM EDT


 

Airport Tracker/Info


-or-


 

Live Flight TrackerFlight Track Log ✈ N27XP ✈ 24-Jun-2013 ✈ KSOP - KRYY

Flight Track Log - Related Links

Times and Time Zones

All times are in EDT time to prevent confusion due to time zone crossing. See the N27XP flight status page for this flight to view local times or setup timezone preferences in your user account.

Time Position Orientation Groundspeed Altitude Reporting Facility
EDT Latitude Longitude Course Direction KTS MPH feet Rate Location/Type
08:52AM 35.1772 -79.4722 227° Southwest 194 223 4,100  Level Washington Center
08:53AM 35.1353 -79.5361 231° Southwest 229 264 6,800 2,520 Climbing Washington Center
08:54AM 35.0956 -79.6028 234° Southwest 247 284 9,200 2,340 Climbing Washington Center
08:56AM 35.0067 -79.7322 230° Southwest 256 295 13,700 2,280 Climbing Jacksonville Center
08:57AM 34.9080 -79.8636 227° Southwest  Level FlightAware Approximate
08:57AM 34.9606 -79.8075 233° Southwest 267 307 16,000  Level Jacksonville Center
08:58AM 34.9122 -79.8800 231° Southwest 274 315 17,800 960 Climbing Jacksonville Center
08:59AM 34.8558 -79.9631 230° Southwest 297 342 18,000 540 Climbing Jacksonville Center
09:00AM 34.7914 -80.0664 233° Southwest 328 377 18,900 960 Climbing Jacksonville Center
09:01AM 34.7289 -80.1594 231° Southwest 351 404 20,000 540 Climbing Jacksonville Center
09:02AM 34.6664 -80.2572 232° Southwest 362 417 20,000  Level Jacksonville Center
09:03AM 34.6142 -80.3597 238° Southwest 367 422 20,000  Level Jacksonville Center
09:04AM 34.5600 -80.4722 240° Southwest 375 432 20,000  Level Jacksonville Center
09:05AM 34.5017 -80.5872 238° Southwest 388 447 20,000  Level Jacksonville Center
09:06AM 34.4411 -80.7022 237° Southwest 402 463 20,000  Level Jacksonville Center
09:07AM 34.3867 -80.8142 240° Southwest 403 464 20,000  Level Jacksonville Center
09:08AM 34.3383 -80.9136 240° Southwest 403 464 20,000  Level Jacksonville Center
09:09AM 34.2775 -81.0381 239° Southwest 397 457 20,000  Level Jacksonville Center
09:10AM 34.2311 -81.1319 239° Southwest 389 448 20,000  Level Jacksonville Center
09:11AM 34.1719 -81.2486 239° Southwest 389 448 20,000  Level Jacksonville Center
09:12AM 34.1172 -81.3600 239° Southwest 394 453 20,000  Level Jacksonville Center
09:13AM 34.0622 -81.4714 239° Southwest 394 453 20,000  Level Jacksonville Center
09:15AM 33.9208 -81.7408 238° Southwest 397 457 20,000  Level Atlanta Center
09:16AM 33.8750 -81.8569 245° Southwest 397 457 20,000  Level Atlanta Center
09:17AM 33.8711 -81.9872 268° West 387 445 20,000  Level Atlanta Center
09:18AM 33.8794 -82.1197 274° West 388 447 20,000  Level Atlanta Center
09:19AM 33.8897 -82.2469 276° West 388 447 20,000  Level Atlanta Center
09:20AM 33.8956 -82.3694 273° West 401 461 20,000  Level Atlanta Center
09:21AM 33.9036 -82.5019 274° West 401 461 20,000 -60 Level Atlanta Center
09:22AM 33.9094 -82.6344 273° West 401 461 19,900 -900 Descending Atlanta Center
09:23AM 33.9169 -82.7697 274° West 401 461 18,200 -1,740 Descending Atlanta Center
09:24AM 33.9225 -82.9047 273° West 401 461 16,500 -1,920 Descending Atlanta Center
09:25AM 33.9300 -83.0447 274° West 395 455 14,400 -2,100 Descending Atlanta Center
09:26AM 33.9394 -83.1675 275° West 382 440 12,400 -1,860 Descending Atlanta Center
09:27AM 33.9422 -83.2825 272° West 363 418 10,700 -2,040 Descending Atlanta Center
09:28AM 33.9489 -83.3778 275° West 344 396 8,400 -2,100 Descending Atlanta Center
09:29AM 33.9558 -83.4703 275° West 311 358 6,500 -1,740 Descending Atlanta Center
09:30AM 33.9625 -83.5706 275° West 279 321 5,000 -780 Descending Atlanta Center
09:31AM 33.9689 -83.6556 275° West 264 304 5,000  Level Atlanta Center
09:32AM 33.9775 -83.7356 277° West 256 295 5,000  Level Atlanta Center
09:34AM 33.9833 -83.8833 273° West 241 277 5,000  Level Atlanta TRACON
09:35AM 34.0000 -83.9667 284° West 237 273 5,000  Level Atlanta TRACON
09:36AM 34.0000 -84.0500 270° West 242 278 5,000 -120 Level Atlanta TRACON
09:37AM 34.0000 -84.1167 270° West 242 278 4,800 -480 Descending Atlanta TRACON
09:38AM 34.0000 -84.2000 270° West 239 275 4,100 -420 Descending Atlanta TRACON
09:39AM 34.0167 -84.2833 284° West 205 236 4,000 -60 Descending Atlanta TRACON
09:40AM 34.0167 -84.3500 270° West 183 211 4,000 -300 Level Atlanta TRACON
09:41AM 34.0167 -84.4000 270° West 183 211 3,500 -540 Descending Atlanta TRACON
09:42AM 34.0167 -84.4500 270° West 141 162 3,000 -600 Descending Atlanta TRACON
09:43AM 34.0167 -84.5000 270° West 126 145 2,400 -660 Descending Atlanta TRACON
09:44AM 34.0167 -84.5333 270° West 121 139 1,700 -720 Descending Atlanta TRACON